Time;durP1;ratioP1;P1;durP2;ratioP2;P2;SDS_P1;SDS_P2;PMS_P1;PMS_P2;Temp;Humidity;BMP_temperature;BMP_pressure;BME280_temperature;BME280_humidity;BME280_pressure;Samples;Min_cycle;Max_cycle;Signal;HPM_P1;HPM_P2
2022/08/16 00:00:27;;;;;;;;;33.67;30.00;;;;;23.80;53.23;100064.38;5077550;27;45576;-65
2022/08/16 00:02:54;;;;;;;;;32.33;28.00;;;;;23.79;52.92;100068.13;5078299;27;46131;-65
2022/08/16 00:05:23;;;;;;;;;35.33;31.67;;;;;23.78;53.42;100073.75;5079476;27;45690;-67
2022/08/16 00:07:49;;;;;;;;;31.00;31.00;;;;;23.80;53.51;100082.56;5059265;27;48321;-68
2022/08/16 00:10:16;;;;;;;;;34.00;32.00;;;;;23.74;53.28;100072.44;5077331;27;45587;-69
2022/08/16 00:12:41;;;;;;;;;29.00;26.00;;;;;23.71;53.59;100070.94;5058083;27;45735;-64
2022/08/16 00:15:21;;;;;;;;;38.67;31.67;;;;;23.72;53.86;100088.09;5079908;27;45553;-68
2022/08/16 00:17:46;;;;;;;;;37.00;32.00;;;;;23.67;53.79;100085.06;5073828;27;45718;-63
2022/08/16 00:20:13;;;;;;;;;34.33;31.00;;;;;23.63;54.17;100095.44;5080058;27;45780;-69
2022/08/16 00:22:41;;;;;;;;;32.00;28.67;;;;;23.60;54.25;100090.38;5082311;27;46881;-64
2022/08/16 00:25:11;;;;;;;;;31.33;30.33;;;;;23.34;54.76;100057.31;5082318;27;47144;-63
2022/08/16 00:27:36;;;;;;;;;34.33;31.00;;;;;23.53;54.72;100089.38;5082224;27;46269;-68
2022/08/16 00:30:04;;;;;;;;;30.33;29.33;;;;;23.50;54.66;100093.31;5081032;27;46987;-66
2022/08/16 00:32:30;;;;;;;;;35.67;31.00;;;;;23.51;54.32;100097.69;5061547;27;45494;-64
2022/08/16 00:34:55;;;;;;;;;37.67;30.67;;;;;23.48;54.76;100102.66;5082685;27;46296;-65
2022/08/16 00:37:23;;;;;;;;;33.00;31.00;;;;;23.47;54.38;100101.81;5081034;27;46301;-67
2022/08/16 00:39:49;;;;;;;;;33.67;30.33;;;;;23.47;54.76;100101.81;5081558;27;45603;-69
2022/08/16 00:42:14;;;;;;;;;34.00;32.33;;;;;23.41;55.13;100097.09;5082668;27;47007;-69
2022/08/16 00:44:48;;;;;;;;;31.33;31.00;;;;;23.42;54.75;100090.63;5080796;27;45672;-67
2022/08/16 00:47:17;;;;;;;;;34.67;31.33;;;;;23.34;54.80;100076.31;5082138;27;46441;-62
2022/08/16 00:49:42;;;;;;;;;31.67;31.00;;;;;23.36;55.00;100088.66;5079948;27;45795;-67
2022/08/16 00:52:08;;;;;;;;;37.33;34.00;;;;;23.40;55.18;100100.00;5080756;27;45845;-65
2022/08/16 00:54:35;;;;;;;;;29.00;27.67;;;;;23.41;55.12;100094.38;5081740;27;45508;-63
2022/08/16 00:57:02;;;;;;;;;31.33;31.00;;;;;23.41;55.32;100097.09;5081082;27;47096;-61
2022/08/16 00:59:32;;;;;;;;;38.00;32.00;;;;;23.36;55.28;100077.81;5081075;27;46200;-65
2022/08/16 01:01:59;;;;;;;;;32.67;31.67;;;;;23.40;54.88;100083.72;5081131;27;45568;-65
2022/08/16 01:04:26;;;;;;;;;36.33;31.00;;;;;23.42;55.29;100076.22;5060942;27;47030;-60
2022/08/16 01:06:52;;;;;;;;;36.33;30.67;;;;;23.42;54.79;100078.94;5081917;27;46083;-66
2022/08/16 01:09:18;;;;;;;;;32.33;31.33;;;;;23.39;55.17;100077.44;5083074;27;46112;-68
2022/08/16 01:11:45;;;;;;;;;32.67;30.00;;;;;23.37;55.05;100062.38;5081541;27;46237;-65
2022/08/16 01:14:28;;;;;;;;;36.00;34.00;;;;;23.35;54.95;100065.28;5082746;27;45631;-65
2022/08/16 01:16:55;;;;;;;;;32.00;31.00;;;;;23.34;55.40;100069.00;5080619;27;46444;-62
2022/08/16 01:19:39;;;;;;;;;34.33;31.00;;;;;23.32;55.29;100071.06;5081239;27;45592;-63
2022/08/16 01:22:18;;;;;;;;;29.00;29.00;;;;;23.35;55.52;100065.28;5062082;27;46062;-61
2022/08/16 01:25:21;;;;;;;;;32.00;30.33;;;;;23.33;54.95;100056.47;5080225;27;45702;-63
2022/08/16 01:27:52;;;;;;;;;28.67;27.33;;;;;23.32;54.76;100052.06;5049056;27;45543;-66
2022/08/16 01:30:31;;;;;;;;;33.33;32.67;;;;;23.34;54.63;100058.16;5081092;27;45470;-63
2022/08/16 01:33:01;;;;;;;;;36.67;30.00;;;;;23.36;55.04;100071.53;5082561;27;45522;-66
2022/08/16 01:35:37;;;;;;;;;36.67;30.00;;;;;23.36;54.81;100071.53;5080908;27;46076;-63
2022/08/16 01:38:28;;;;;;;;;34.33;29.67;;;;;23.36;55.19;100083.22;5079763;27;45749;-62
2022/08/16 01:40:58;;;;;;;;;31.33;30.00;;;;;23.34;54.94;100074.44;5080658;27;47130;-62
2022/08/16 01:43:24;;;;;;;;;39.00;30.33;;;;;23.29;55.42;100068.69;5079911;27;46906;-65
2022/08/16 01:45:58;;;;;;;;;36.33;31.00;;;;;23.34;55.27;100068.16;5080271;27;45586;-66
2022/08/16 01:48:27;;;;;;;;;31.33;28.33;;;;;23.29;55.13;100065.97;5079526;27;45670;-67
2022/08/16 01:50:55;;;;;;;;;25.00;24.33;;;;;23.31;54.94;100074.81;5060143;27;45665;-66
2022/08/16 01:53:21;;;;;;;;;27.00;27.00;;;;;23.27;55.11;100068.03;5081359;27;45734;-67
2022/08/16 01:55:46;;;;;;;;;28.67;28.67;;;;;23.27;55.45;100073.47;5080339;27;45457;-66
2022/08/16 01:58:15;;;;;;;;;34.00;30.33;;;;;23.19;55.15;100065.41;5079030;27;46905;-65
2022/08/16 02:00:41;;;;;;;;;33.00;30.67;;;;;23.23;55.05;100078.41;5059694;27;45604;-63
2022/08/16 02:03:07;;;;;;;;;34.67;31.00;;;;;23.24;55.58;100079.25;5079196;27;46097;-64
2022/08/16 02:05:33;;;;;;;;;31.33;31.33;;;;;23.14;55.53;100062.34;5080510;27;45470;-62
2022/08/16 02:07:59;;;;;;;;;25.67;25.67;;;;;23.21;55.23;100057.91;5080930;27;45594;-67
2022/08/16 02:10:24;;;;;;;;;32.00;31.00;;;;;23.27;54.99;100073.47;5080724;27;45895;-66
2022/08/16 02:12:50;;;;;;;;;28.33;27.00;;;;;23.28;55.32;100072.44;5080453;27;46057;-63
2022/08/16 02:15:19;;;;;;;;;35.67;34.00;;;;;23.23;54.90;100066.72;5060232;27;46905;-67
2022/08/16 02:17:44;;;;;;;;;33.00;30.00;;;;;23.25;54.90;100067.38;5078786;27;45535;-64
2022/08/16 02:20:10;;;;;;;;;29.00;26.67;;;;;23.23;55.22;100074.84;5080870;27;45659;-66
2022/08/16 02:22:36;;;;;;;;;33.67;31.00;;;;;23.22;54.67;100070.44;5079142;27;45528;-64
2022/08/16 02:25:07;;;;;;;;;24.67;24.67;;;;;23.19;55.21;100065.41;5080948;27;45692;-61
2022/08/16 02:27:32;;;;;;;;;30.00;30.00;;;;;23.22;54.93;100065.03;5079174;27;46916;-61
2022/08/16 02:29:57;;;;;;;;;29.33;28.67;;;;;23.22;55.04;100065.03;5079793;27;46163;-62
2022/08/16 02:32:23;;;;;;;;;30.00;28.33;;;;;23.22;55.12;100059.59;5080333;27;45562;-61
2022/08/16 02:34:48;;;;;;;;;27.00;25.00;;;;;23.28;55.04;100053.44;5059522;27;45670;-66
2022/08/16 02:37:14;;;;;;;;;27.33;27.33;;;;;23.30;55.07;100051.38;5079054;27;47218;-66
2022/08/16 02:39:39;;;;;;;;;29.33;29.33;;;;;23.32;55.12;100043.94;5080919;27;46865;-62
2022/08/16 02:42:05;;;;;;;;;30.67;30.67;;;;;23.32;55.09;100046.66;5078659;27;46127;-62
2022/08/16 02:44:30;;;;;;;;;32.33;28.67;;;;;23.30;54.95;100035.09;5079048;27;45746;-64
2022/08/16 02:46:56;;;;;;;;;29.67;27.33;;;;;23.31;54.77;100025.97;5078659;27;47483;-63
2022/08/16 02:49:22;;;;;;;;;32.33;28.33;;;;;23.28;54.92;100015.47;5078211;27;45775;-61
2022/08/16 02:51:47;;;;;;;;;30.67;29.67;;;;;23.31;55.16;100019.66;5083156;27;45587;-64
2022/08/16 02:54:13;;;;;;;;;28.33;27.67;;;;;23.31;54.83;100022.38;5059911;27;45747;-65
2022/08/16 02:56:40;;;;;;;;;30.00;27.67;;;;;23.36;55.23;100033.56;5080060;27;46982;-64
2022/08/16 02:59:05;;;;;;;;;30.67;30.33;;;;;23.31;54.87;100023.25;5080869;27;45862;-62
2022/08/16 03:01:32;;;;;;;;;32.00;27.33;;;;;23.36;54.96;100023.53;5079541;27;47148;-66
2022/08/16 03:03:59;;;;;;;;;33.67;30.00;;;;;23.37;54.96;99998.09;5078300;27;45465;-67
2022/08/16 03:06:26;;;;;;;;;33.67;31.67;;;;;23.36;54.74;99985.56;5078021;27;47367;-65
2022/08/16 03:08:53;;;;;;;;;33.33;29.33;;;;;23.38;54.91;99991.63;5078268;27;46071;-62
2022/08/16 03:11:19;;;;;;;;;32.00;30.00;;;;;23.39;54.92;99993.31;5081905;27;45495;-65
2022/08/16 03:13:48;;;;;;;;;30.33;29.00;;;;;23.36;55.91;99990.97;5078257;27;45701;-66
2022/08/16 03:16:13;;;;;;;;;32.33;29.00;;;;;23.40;56.33;99999.59;5078355;27;45696;-63
2022/08/16 03:18:40;;;;;;;;;31.67;30.33;;;;;23.39;56.39;100001.47;5080212;27;46949;-64
2022/08/16 03:21:06;;;;;;;;;35.33;32.00;;;;;23.39;56.79;100012.31;5078412;27;45527;-64
2022/08/16 03:23:33;;;;;;;;;33.33;32.33;;;;;23.31;55.89;100009.69;5080348;27;45493;-63
2022/08/16 03:25:59;;;;;;;;;32.00;30.67;;;;;23.38;55.93;100032.34;5079365;27;46887;-63
2022/08/16 03:28:24;;;;;;;;;29.00;29.00;;;;;23.41;56.49;100033.84;5078153;27;46104;-62
2022/08/16 03:30:50;;;;;;;;;34.67;29.00;;;;;23.39;56.14;100027.75;5080347;27;45604;-61
2022/08/16 03:33:16;;;;;;;;;34.67;32.33;;;;;23.41;56.23;100036.56;5078201;27;45665;-60
2022/08/16 03:35:42;;;;;;;;;36.00;31.33;;;;;23.39;55.87;100038.59;5074907;27;47044;-62
2022/08/16 03:38:11;;;;;;;;;40.67;33.00;;;;;23.36;55.45;100039.81;5079648;27;45870;-61
2022/08/16 03:40:38;;;;;;;;;29.33;29.00;;;;;23.34;55.78;100038.31;5078726;27;45517;-64
2022/08/16 03:43:05;;;;;;;;;37.33;31.33;;;;;23.35;55.96;100043.56;5078699;27;46876;-64
2022/08/16 03:45:32;;;;;;;;;36.00;32.00;;;;;23.35;55.64;100029.16;5079674;27;46634;-64
2022/08/16 03:47:58;;;;;;;;;31.00;31.00;;;;;23.33;56.19;100039.34;5077608;27;47011;-66
2022/08/16 03:50:25;;;;;;;;;9.00;9.00;;;;;23.28;55.98;100031.72;5079551;27;46132;-65
2022/08/16 03:52:50;;;;;;;;;39.00;32.33;;;;;23.23;56.18;100037.72;5079054;27;45665;-62
2022/08/16 03:55:16;;;;;;;;;36.00;33.00;;;;;23.17;56.91;100043.00;5079839;27;45710;-66
2022/08/16 03:57:41;;;;;;;;;34.67;32.67;;;;;23.01;56.72;100016.84;5083755;27;45743;-67
2022/08/16 04:00:14;;;;;;;;;33.33;32.33;;;;;23.17;56.84;100043.00;5061878;27;45536;-60
2022/08/16 04:02:40;;;;;;;;;36.33;31.67;;;;;23.15;57.02;100036.91;5062032;27;45546;-63
2022/08/16 04:05:07;;;;;;;;;41.00;35.00;;;;;23.13;56.77;100033.56;5083450;27;46945;-63
2022/08/16 04:07:32;;;;;;;;;38.00;32.33;;;;;23.11;56.33;100041.03;5079985;27;46885;-62
2022/08/16 04:09:57;;;;;;;;;35.67;33.00;;;;;23.04;57.24;100034.63;5083368;27;46021;-65
2022/08/16 04:12:23;;;;;;;;;35.00;31.33;;;;;23.06;57.25;100055.13;5081201;27;45532;-63
2022/08/16 04:14:48;;;;;;;;;43.67;35.67;;;;;22.99;57.57;100061.44;5080575;27;47009;-64
2022/08/16 04:17:15;;;;;;;;;38.00;32.33;;;;;22.94;57.63;100057.41;5084521;27;45450;-65
2022/08/16 04:19:43;;;;;;;;;40.67;32.00;;;;;22.94;58.05;100052.00;5081279;27;45474;-62
2022/08/16 04:22:10;;;;;;;;;32.67;31.00;;;;;22.91;58.07;100057.75;5081559;27;46007;-61
2022/08/16 04:24:35;;;;;;;;;41.67;34.33;;;;;22.85;58.80;100052.22;5083212;27;47023;-62
2022/08/16 04:27:01;;;;;;;;;36.67;33.67;;;;;22.70;58.74;100035.81;5077529;27;45585;-61
2022/08/16 04:29:27;;;;;;;;;40.67;35.00;;;;;22.79;58.16;100052.91;5080799;27;45773;-62
2022/08/16 04:31:54;;;;;;;;;33.33;31.33;;;;;22.74;58.73;100045.28;5083163;27;45597;-65
2022/08/16 04:34:20;;;;;;;;;36.33;32.67;;;;;22.71;58.46;100050.22;5062380;27;45717;-63
2022/08/16 04:36:46;;;;;;;;;32.33;31.33;;;;;22.61;58.63;100042.31;5085238;27;45458;-61
2022/08/16 04:39:11;;;;;;;;;30.00;28.67;;;;;22.62;58.53;100052.13;5081336;27;45713;-63
2022/08/16 04:41:37;;;;;;;;;35.00;31.33;;;;;22.58;58.82;100050.78;5081615;27;45652;-62
2022/08/16 04:44:02;;;;;;;;;31.00;30.00;;;;;22.54;58.95;100049.47;5063097;27;45544;-62
2022/08/16 04:46:28;;;;;;;;;32.33;32.00;;;;;22.55;59.08;100048.44;5062318;27;46151;-62
2022/08/16 04:48:53;;;;;;;;;32.00;29.67;;;;;22.47;58.68;100041.19;5081887;27;45668;-64
2022/08/16 04:51:19;;;;;;;;;36.33;31.00;;;;;22.51;59.07;100056.06;5083470;27;46097;-62
2022/08/16 04:53:44;;;;;;;;;37.33;32.33;;;;;22.51;58.86;100055.22;5080015;27;46733;-62
2022/08/16 04:56:10;;;;;;;;;35.00;29.00;;;;;22.44;59.51;100056.94;5065011;27;45790;-65
2022/08/16 04:58:35;;;;;;;;;32.67;31.00;;;;;22.53;59.25;100061.34;5081407;27;45583;-63
2022/08/16 05:01:01;;;;;;;;;30.33;28.33;;;;;22.52;59.17;100063.16;5080734;27;45647;-64
2022/08/16 05:03:27;;;;;;;;;29.67;27.33;;;;;22.49;58.81;100058.09;5082393;27;47662;-65
2022/08/16 05:05:53;;;;;;;;;31.33;29.00;;;;;22.50;59.12;100054.38;5079814;27;45632;-66
2022/08/16 05:08:18;;;;;;;;;28.67;28.33;;;;;22.53;59.52;100058.63;5080963;27;45634;-62
2022/08/16 05:10:44;;;;;;;;;34.67;31.33;;;;;22.58;58.89;100058.94;5082741;27;45631;-61
2022/08/16 05:13:09;;;;;;;;;28.67;28.67;;;;;22.59;58.72;100066.03;5061525;27;48215;-61
2022/08/16 05:15:35;;;;;;;;;28.67;28.67;;;;;22.59;59.20;100063.31;5080892;27;46031;-68
2022/08/16 05:18:02;;;;;;;;;28.00;27.67;;;;;22.59;59.21;100068.75;5080915;27;46923;-64
2022/08/16 05:20:28;;;;;;;;;31.00;28.00;;;;;22.49;58.93;100058.09;5080295;27;46929;-64
2022/08/16 05:22:53;;;;;;;;;26.33;25.00;;;;;22.57;59.19;100079.75;5081834;27;46060;-64
2022/08/16 05:25:19;;;;;;;;;28.00;26.67;;;;;22.50;59.41;100086.88;5064127;27;47319;-63
2022/08/16 05:27:45;;;;;;;;;25.67;25.67;;;;;22.57;59.06;100095.19;5079730;27;46089;-65
2022/08/16 05:30:12;;;;;;;;;28.67;25.67;;;;;22.56;59.27;100102.47;5082338;27;47243;-63
2022/08/16 05:32:39;;;;;;;;;26.67;25.33;;;;;22.55;59.23;100095.34;5081641;27;46601;-65
2022/08/16 05:35:07;;;;;;;;;22.67;21.00;;;;;22.58;59.20;100105.84;5079541;27;47361;-64
2022/08/16 05:37:34;;;;;;;;;25.67;25.67;;;;;22.57;59.56;100103.31;5080613;27;46104;-64
2022/08/16 05:40:00;;;;;;;;;26.33;24.67;;;;;22.55;59.13;100094.50;5079943;27;45606;-65
2022/08/16 05:42:25;;;;;;;;;24.33;22.67;;;;;22.57;59.38;100092.47;5081793;27;46143;-64
2022/08/16 05:44:50;;;;;;;;;23.00;22.67;;;;;22.58;58.74;100088.72;5079612;27;45543;-64
2022/08/16 05:47:16;;;;;;;;;28.00;24.67;;;;;22.56;58.99;100079.94;5080119;27;45738;-65
2022/08/16 05:49:41;;;;;;;;;20.00;19.33;;;;;22.64;58.75;100099.69;5081777;27;46432;-64
2022/08/16 05:52:08;;;;;;;;;25.00;23.67;;;;;22.63;58.50;100102.59;5081669;27;45611;-63
2022/08/16 05:54:34;;;;;;;;;22.67;22.33;;;;;22.65;59.09;100100.53;5079627;27;45514;-64
2022/08/16 05:56:59;;;;;;;;;22.00;22.00;;;;;22.68;58.38;100113.78;5081895;27;45607;-64
2022/08/16 05:59:26;;;;;;;;;24.33;21.67;;;;;22.65;58.70;100105.97;5080233;27;45525;-63
2022/08/16 06:01:51;;;;;;;;;22.00;20.33;;;;;22.74;58.65;100117.63;5060016;27;46348;-64
2022/08/16 06:04:17;;;;;;;;;18.00;17.00;;;;;22.78;58.17;100110.81;5080141;27;45868;-62
2022/08/16 06:06:44;;;;;;;;;16.67;16.00;;;;;22.83;58.62;100113.91;5076328;27;46928;-64
2022/08/16 06:09:11;;;;;;;;;18.00;18.00;;;;;22.86;58.00;100108.97;5063390;27;45745;-61
2022/08/16 06:11:37;;;;;;;;;19.67;19.67;;;;;22.90;57.89;100114.88;5080333;27;46292;-64
2022/08/16 06:14:03;;;;;;;;;20.33;20.33;;;;;22.97;57.18;100115.03;5081363;27;46952;-60
2022/08/16 06:16:29;;;;;;;;;25.67;21.00;;;;;23.00;58.03;100118.22;5079953;27;45529;-61
2022/08/16 06:18:54;;;;;;;;;19.33;19.33;;;;;23.09;57.08;100124.44;5078414;27;47070;-61
2022/08/16 06:21:20;;;;;;;;;20.00;18.00;;;;;23.11;56.71;100122.41;5081727;27;45476;-62
2022/08/16 06:23:45;;;;;;;;;19.67;18.33;;;;;23.13;56.24;100131.19;5079712;27;45632;-62
2022/08/16 06:26:11;;;;;;;;;15.00;13.67;;;;;23.17;56.05;100122.50;5079539;27;45988;-60
2022/08/16 06:28:36;;;;;;;;;21.67;18.00;;;;;23.19;56.33;100125.91;5081474;27;45549;-61
2022/08/16 06:31:02;;;;;;;;;20.33;19.33;;;;;23.19;56.46;100111.50;5058413;27;47769;-60
2022/08/16 06:33:28;;;;;;;;;20.33;18.00;;;;;23.27;56.43;100122.28;5079621;27;46046;-61
2022/08/16 06:35:55;;;;;;;;;18.33;18.33;;;;;23.34;56.31;100122.44;5079078;27;45676;-60
2022/08/16 06:38:21;;;;;;;;;21.33;21.33;;;;;23.40;56.52;100133.41;5079522;27;46056;-60
2022/08/16 06:40:47;;;;;;;;;23.33;21.33;;;;;23.38;56.88;100112.91;5080877;27;46799;-59
2022/08/16 06:43:13;;;;;;;;;24.67;21.67;;;;;23.47;56.42;100134.38;5079674;27;46075;-60
2022/08/16 06:45:41;;;;;;;;;21.00;21.00;;;;;23.48;56.57;100125.22;5062102;27;46093;-60
2022/08/16 06:48:08;;;;;;;;;25.67;24.00;;;;;23.48;56.44;100114.34;5080226;27;45712;-60
2022/08/16 06:50:34;;;;;;;;;21.67;20.00;;;;;23.53;56.17;100117.34;5079419;27;48172;-59
2022/08/16 06:53:00;;;;;;;;;26.33;25.00;;;;;23.53;56.50;100120.06;5078899;27;45754;-59
2022/08/16 06:55:29;;;;;;;;;22.00;20.33;;;;;23.51;56.26;100122.13;5080987;27;45655;-60
2022/08/16 06:57:55;;;;;;;;;26.00;25.67;;;;;23.54;56.15;100120.91;5079144;27;45856;-60
2022/08/16 07:00:22;;;;;;;;;21.00;19.33;;;;;23.57;55.88;100123.28;5060628;27;47146;-60
2022/08/16 07:02:48;;;;;;;;;22.00;21.00;;;;;23.55;55.98;100126.16;5081210;27;46410;-59
2022/08/16 07:05:15;;;;;;;;;21.00;20.33;;;;;23.59;56.00;100123.16;5078644;27;46141;-59
2022/08/16 07:07:43;;;;;;;;;21.33;19.67;;;;;23.57;55.62;100119.69;5080813;27;45661;-59
2022/08/16 07:10:10;;;;;;;;;19.67;17.67;;;;;23.58;55.50;100129.59;5078821;27;45536;-60
2022/08/16 07:12:36;;;;;;;;;20.33;20.33;;;;;23.61;55.56;100134.66;5077707;27;45680;-60
2022/08/16 07:15:03;;;;;;;;;27.00;24.67;;;;;23.59;55.67;100125.84;5080371;27;45533;-60
2022/08/16 07:17:29;;;;;;;;;23.33;23.33;;;;;23.52;55.24;100109.41;5077944;27;45721;-61
2022/08/16 07:19:55;;;;;;;;;19.67;19.33;;;;;23.52;55.43;100126.53;5080605;27;46865;-60
2022/08/16 07:22:21;;;;;;;;;20.33;19.33;;;;;23.55;55.29;100136.19;5079211;27;46253;-59
2022/08/16 07:24:47;;;;;;;;;25.33;22.00;;;;;23.59;55.67;100142.16;5078450;27;46280;-58
2022/08/16 07:27:13;;;;;;;;;21.67;19.67;;;;;23.60;55.12;100132.97;5079436;27;45520;-59
2022/08/16 07:29:39;;;;;;;;;20.00;20.00;;;;;23.58;55.49;100125.00;5079536;27;48166;-60
2022/08/16 07:32:05;;;;;;;;;25.33;22.67;;;;;23.65;54.93;100133.25;5082377;27;45483;-58
2022/08/16 07:34:30;;;;;;;;;16.00;14.67;;;;;23.58;54.29;100135.88;5084859;27;45465;-60
2022/08/16 07:36:57;;;;;;;;;20.00;17.67;;;;;23.57;54.95;100133.28;5082043;27;46861;-59
2022/08/16 07:39:22;;;;;;;;;24.00;23.33;;;;;23.57;55.37;100131.44;5083973;27;47463;-63
2022/08/16 07:41:48;;;;;;;;;18.67;18.67;;;;;23.62;55.11;100130.91;5082155;27;47028;-60
2022/08/16 07:44:13;;;;;;;;;26.33;23.00;;;;;23.73;55.70;100149.50;5078468;27;45580;-59
2022/08/16 07:46:38;;;;;;;;;20.00;18.67;;;;;23.74;55.45;100151.19;5085348;27;46946;-60
2022/08/16 07:49:04;;;;;;;;;22.00;20.33;;;;;23.72;55.11;100136.94;5081305;27;46973;-61
2022/08/16 07:51:33;;;;;;;;;20.33;19.67;;;;;23.70;55.17;100138.97;5082543;27;45690;-59
2022/08/16 07:54:01;;;;;;;;;25.00;23.00;;;;;23.73;55.08;100146.78;5082370;27;46011;-60
2022/08/16 07:56:27;;;;;;;;;22.67;21.00;;;;;23.70;54.96;100138.97;5081474;27;46049;-59
2022/08/16 07:58:53;;;;;;;;;23.00;22.67;;;;;23.69;55.01;100142.72;5083311;27;46235;-60
2022/08/16 08:01:19;;;;;;;;;23.33;22.67;;;;;23.66;54.77;100137.66;5082678;27;45530;-61
2022/08/16 08:03:44;;;;;;;;;24.00;19.33;;;;;23.73;54.89;100157.63;5082094;27;45628;-60
2022/08/16 08:06:10;;;;;;;;;24.33;20.00;;;;;23.73;55.09;100154.94;5084393;27;45694;-60
2022/08/16 08:08:35;;;;;;;;;25.33;19.33;;;;;23.72;54.71;100151.38;5081037;27;45744;-62
2022/08/16 08:11:01;;;;;;;;;23.00;21.67;;;;;23.82;54.78;100149.22;5061400;27;45559;-59
2022/08/16 08:13:28;;;;;;;;;22.00;22.00;;;;;23.88;54.89;100155.81;5084395;27;45701;-61
2022/08/16 08:15:53;;;;;;;;;21.33;20.67;;;;;23.86;54.58;100149.72;5081116;27;45634;-59
2022/08/16 08:18:19;;;;;;;;;19.00;17.33;;;;;23.87;54.75;100151.41;5080785;27;46221;-60
2022/08/16 08:20:44;;;;;;;;;22.00;19.00;;;;;23.92;54.92;100142.72;5081566;27;45531;-59
2022/08/16 08:23:12;;;;;;;;;27.67;23.00;;;;;23.92;54.53;100146.28;5080524;27;45786;-58
2022/08/16 08:25:39;;;;;;;;;21.33;18.33;;;;;23.98;54.87;100147.44;5083245;27;45590;-60
2022/08/16 08:28:05;;;;;;;;;20.00;18.33;;;;;24.08;54.47;100156.97;5080667;27;46118;-58
2022/08/16 08:30:31;;;;;;;;;22.33;18.33;;;;;24.07;54.67;100147.16;5081360;27;46035;-60
2022/08/16 08:32:57;;;;;;;;;23.67;18.67;;;;;24.11;54.21;100153.91;5082643;27;46975;-59
2022/08/16 08:35:22;;;;;;;;;19.33;17.67;;;;;24.24;54.18;100156.00;5080958;27;45605;-59
2022/08/16 08:37:47;;;;;;;;;22.33;21.33;;;;;24.26;53.82;100144.94;5083812;27;46196;-59
2022/08/16 08:40:13;;;;;;;;;18.67;18.33;;;;;24.41;53.42;100149.41;5081727;27;45578;-60
2022/08/16 08:42:42;;;;;;;;;20.50;20.50;;;;;24.61;53.05;100152.41;5080984;27;45840;-59
2022/08/16 08:45:10;;;;;;;;;20.75;18.75;;;;;24.84;52.78;100159.59;5082834;27;47198;-59
2022/08/16 08:47:36;;;;;;;;;16.50;16.50;;;;;24.94;52.40;100161.00;5080656;27;47151;-60
2022/08/16 08:50:03;;;;;;;;;25.00;21.00;;;;;25.06;52.54;100169.56;5080457;27;46054;-60
2022/08/16 08:52:28;;;;;;;;;19.00;19.00;;;;;25.10;51.85;100165.41;5081558;27;46934;-60
2022/08/16 08:54:54;;;;;;;;;17.50;17.25;;;;;25.22;51.63;100171.22;5080624;27;45518;-61
2022/08/16 08:57:21;;;;;;;;;20.67;19.00;;;;;25.29;51.82;100164.84;5081290;27;47001;-61
2022/08/16 08:59:46;;;;;;;;;20.67;18.33;;;;;25.38;51.23;100161.97;5080435;27;45736;-60
2022/08/16 09:02:13;;;;;;;;;17.00;17.00;;;;;25.50;50.72;100165.88;5080248;27;45604;-60
2022/08/16 09:04:39;;;;;;;;;16.00;16.00;;;;;25.49;51.00;100164.19;5063611;27;45588;-60
2022/08/16 09:07:04;;;;;;;;;18.00;17.00;;;;;25.58;50.72;100171.22;5080336;27;46110;-59
2022/08/16 09:09:30;;;;;;;;;24.50;20.00;;;;;25.56;50.73;100160.53;5079673;27;45535;-60
2022/08/16 09:11:56;;;;;;;;;17.25;16.50;;;;;25.61;50.45;100168.09;5081394;27;46065;-61
2022/08/16 09:14:22;;;;;;;;;15.75;15.75;;;;;25.64;50.36;100181.31;5082622;27;45540;-58
2022/08/16 09:16:48;;;;;;;;;22.00;20.75;;;;;25.83;49.52;100178.00;5059456;27;46036;-59
2022/08/16 09:19:13;;;;;;;;;20.00;16.25;;;;;26.07;49.72;100181.38;5081726;27;45531;-60
2022/08/16 09:21:39;;;;;;;;;19.25;17.50;;;;;26.38;48.80;100170.94;5079702;27;46109;-62
2022/08/16 09:24:05;;;;;;;;;15.25;14.50;;;;;26.70;48.47;100176.84;5080719;27;46985;-60
2022/08/16 09:26:30;;;;;;;;;11.50;11.50;;;;;26.84;47.78;100158.66;5083548;27;46118;-60
2022/08/16 09:28:56;;;;;;;;;14.25;12.25;;;;;27.23;47.47;100186.16;5079760;27;45967;-61
2022/08/16 09:31:23;;;;;;;;;16.50;14.00;;;;;27.41;46.96;100182.84;5082456;27;46048;-60
2022/08/16 09:33:48;;;;;;;;;17.00;13.00;;;;;27.48;45.55;100196.53;5080415;27;45693;-59
2022/08/16 09:36:14;;;;;;;;;15.25;13.75;;;;;27.50;45.75;100188.97;5080046;27;46187;-60
2022/08/16 09:38:40;;;;;;;;;13.50;12.00;;;;;27.54;45.22;100202.00;5080591;27;45547;-60
2022/08/16 09:41:09;;;;;;;;;14.00;14.00;;;;;27.51;45.62;100193.38;5076194;27;45596;-59
2022/08/16 09:43:35;;;;;;;;;15.50;14.50;;;;;27.38;45.84;100187.88;5079433;27;46083;-59
2022/08/16 09:46:04;;;;;;;;;15.20;14.00;;;;;27.29;45.73;100190.78;5081267;27;48699;-62
2022/08/16 09:48:31;;;;;;;;;14.00;12.80;;;;;27.35;45.48;100188.31;5079477;27;45547;-60
2022/08/16 09:50:57;;;;;;;;;15.00;12.75;;;;;27.39;45.76;100179.47;5082949;27;46154;-61
2022/08/16 09:53:23;;;;;;;;;11.25;11.25;;;;;27.47;45.82;100190.19;5080274;27;46185;-61
2022/08/16 09:55:51;;;;;;;;;12.25;12.25;;;;;27.41;45.37;100188.31;5060165;27;46103;-60
2022/08/16 09:58:22;;;;;;;;;11.80;11.60;;;;;27.28;44.85;100178.19;5081077;27;45670;-60
2022/08/16 10:00:49;;;;;;;;;15.25;14.75;;;;;27.24;45.67;100181.53;5079108;27;46823;-59
2022/08/16 10:03:16;;;;;;;;;11.00;11.00;;;;;27.30;45.64;100186.16;5079922;27;47415;-60
2022/08/16 10:05:42;;;;;;;;;16.75;14.50;;;;;27.38;45.25;100194.19;5082756;27;46154;-59
2022/08/16 10:08:08;;;;;;;;;11.60;11.60;;;;;27.32;45.86;100195.81;5079062;27;47023;-59
2022/08/16 10:10:34;;;;;;;;;14.25;12.75;;;;;27.26;45.87;100184.91;5079830;27;45597;-60
2022/08/16 10:13:13;;;;;;;;;14.25;14.25;;;;;27.24;45.74;100195.19;5080736;27;45729;-59
2022/08/16 10:15:41;;;;;;;;;13.50;13.50;;;;;27.16;46.14;100193.47;5078772;27;46253;-59
2022/08/16 10:18:11;;;;;;;;;16.25;14.00;;;;;27.24;45.74;100193.28;5080345;27;45500;-60
2022/08/16 10:20:43;;;;;;;;;16.25;14.75;;;;;27.30;45.69;100187.00;5079136;27;45591;-59
2022/08/16 10:23:17;;;;;;;;;15.75;15.50;;;;;27.32;46.15;100194.97;5084241;27;46906;-61
2022/08/16 10:25:44;;;;;;;;;18.50;15.50;;;;;27.37;45.72;100191.66;5096985;27;45330;-61
2022/08/16 10:28:10;;;;;;;;;18.80;14.20;;;;;27.31;45.13;100201.50;5092342;27;47134;-58
2022/08/16 10:30:37;;;;;;;;;15.80;14.60;;;;;27.23;46.21;100196.22;5079330;27;46038;-60
2022/08/16 10:33:04;;;;;;;;;14.50;14.00;;;;;27.14;46.20;100197.44;5079108;27;46210;-60
2022/08/16 10:35:30;;;;;;;;;11.75;11.75;;;;;26.95;46.24;100198.97;5079988;27;46283;-61
2022/08/16 10:37:56;;;;;;;;;14.00;14.00;;;;;26.92;47.00;100200.22;5079452;27;46991;-61
2022/08/16 10:40:21;;;;;;;;;12.00;12.00;;;;;26.95;46.64;100197.09;5078839;27;45645;-60
2022/08/16 10:42:48;;;;;;;;;14.75;14.50;;;;;26.94;46.17;100180.94;5081215;27;46007;-63
2022/08/16 10:45:14;;;;;;;;;14.75;14.75;;;;;27.02;45.91;100195.28;5078968;27;45516;-59
2022/08/16 10:47:39;;;;;;;;;12.00;12.00;;;;;27.04;46.33;100193.19;5079681;27;45556;-62
2022/08/16 10:50:06;;;;;;;;;16.75;15.50;;;;;27.06;46.77;100184.78;5080230;27;45657;-59
2022/08/16 10:52:32;;;;;;;;;15.50;15.50;;;;;27.12;46.03;100186.72;5078863;27;45607;-58
2022/08/16 10:54:58;;;;;;;;;18.00;15.50;;;;;27.19;46.00;100190.31;5061656;27;47713;-60
2022/08/16 10:57:25;;;;;;;;;14.60;13.40;;;;;27.24;46.25;100190.56;5078512;27;45511;-59
2022/08/16 10:59:52;;;;;;;;;19.50;14.00;;;;;27.33;45.74;100196.66;5059006;27;45659;-63
2022/08/16 11:02:18;;;;;;;;;16.50;15.25;;;;;27.40;45.67;100192.09;5064653;27;45711;-59
2022/08/16 11:04:44;;;;;;;;;15.00;15.00;;;;;27.44;45.04;100203.44;5095668;27;47108;-61
2022/08/16 11:07:10;;;;;;;;;14.75;14.00;;;;;27.49;45.34;100196.31;5078191;27;45453;-60